In Rescue
 
Open Full Screen Window  High Contrast Mode
April 03, 2020 1:06 AM EDT
Weather Information
Wind Direction
  ---
Wind Speed
  00 kt (0 mph)
Wind Gust
  00 kt (0 mph)
Altimeter
30.09 in
Visibility
10 SM
Temperature
-02° C
28° F
Dewpoint
-07° C
19° F
Humidity
69%
Sky Condition
Clear
VFR

METAR KCAD 030506Z AUTO 00000KT 10SM CLR M02/M07 A3009 RMK AO2

FAA Disclaimer: The data displayed is for advisory purposes only and is not to be used for flight planning or operations.